sensor_id;sensor_type;location;lat;lon;timestamp;pressure;altitude;pressure_sealevel;temperature;humidity
79136;BME280;68533;51.090;17.216;2023-04-24T00:00:16;99168.81;;;10.69;85.40
79136;BME280;68533;51.090;17.216;2023-04-24T00:03:02;99168.38;;;10.75;85.04
79136;BME280;68533;51.090;17.216;2023-04-24T00:05:29;99164.50;;;10.76;85.45
79136;BME280;68533;51.090;17.216;2023-04-24T00:07:55;99160.31;;;10.79;84.96
79136;BME280;68533;51.090;17.216;2023-04-24T00:10:21;99151.56;;;10.77;85.24
79136;BME280;68533;51.090;17.216;2023-04-24T00:12:47;99149.00;;;10.80;84.49
79136;BME280;68533;51.090;17.216;2023-04-24T00:15:13;99152.56;;;10.81;84.51
79136;BME280;68533;51.090;17.216;2023-04-24T00:17:39;99143.97;;;10.82;84.81
79136;BME280;68533;51.090;17.216;2023-04-24T00:20:05;99146.88;;;10.77;84.90
79136;BME280;68533;51.090;17.216;2023-04-24T00:22:32;99143.97;;;10.74;84.62
79136;BME280;68533;51.090;17.216;2023-04-24T00:24:59;99138.31;;;10.79;84.52
79136;BME280;68533;51.090;17.216;2023-04-24T00:27:24;99144.94;;;10.78;84.05
79136;BME280;68533;51.090;17.216;2023-04-24T00:29:50;99128.63;;;10.81;83.63
79136;BME280;68533;51.090;17.216;2023-04-24T00:32:16;99132.38;;;10.85;83.27
79136;BME280;68533;51.090;17.216;2023-04-24T00:34:43;99133.84;;;10.92;82.25
79136;BME280;68533;51.090;17.216;2023-04-24T00:37:09;99131.59;;;10.94;83.63
79136;BME280;68533;51.090;17.216;2023-04-24T00:39:35;99125.09;;;10.89;83.97
79136;BME280;68533;51.090;17.216;2023-04-24T00:42:01;99128.66;;;10.90;83.44
79136;BME280;68533;51.090;17.216;2023-04-24T00:44:27;99127.63;;;10.77;85.53
79136;BME280;68533;51.090;17.216;2023-04-24T00:46:54;99122.84;;;10.61;86.20
79136;BME280;68533;51.090;17.216;2023-04-24T00:49:21;99123.22;;;10.68;85.98
79136;BME280;68533;51.090;17.216;2023-04-24T00:51:48;99123.72;;;10.70;84.40
79136;BME280;68533;51.090;17.216;2023-04-24T00:54:15;99125.50;;;10.66;84.76
79136;BME280;68533;51.090;17.216;2023-04-24T00:56:42;99119.47;;;10.64;85.61
79136;BME280;68533;51.090;17.216;2023-04-24T00:59:08;99112.41;;;10.71;84.68
79136;BME280;68533;51.090;17.216;2023-04-24T01:01:35;99118.38;;;10.65;85.47
79136;BME280;68533;51.090;17.216;2023-04-24T01:04:01;99114.13;;;10.59;85.99
79136;BME280;68533;51.090;17.216;2023-04-24T01:06:29;99107.00;;;10.58;85.83
79136;BME280;68533;51.090;17.216;2023-04-24T01:08:57;99110.06;;;10.56;85.98
79136;BME280;68533;51.090;17.216;2023-04-24T01:11:25;99103.94;;;10.59;85.51
79136;BME280;68533;51.090;17.216;2023-04-24T01:13:52;99116.44;;;10.65;85.14
79136;BME280;68533;51.090;17.216;2023-04-24T01:16:19;99108.34;;;10.69;85.22
79136;BME280;68533;51.090;17.216;2023-04-24T01:18:48;99104.66;;;10.73;84.71
79136;BME280;68533;51.090;17.216;2023-04-24T01:21:15;99105.78;;;10.72;84.76
79136;BME280;68533;51.090;17.216;2023-04-24T01:23:44;99098.50;;;10.76;84.62
79136;BME280;68533;51.090;17.216;2023-04-24T01:26:10;99096.06;;;10.75;84.83
79136;BME280;68533;51.090;17.216;2023-04-24T01:28:37;99104.81;;;10.77;85.06
79136;BME280;68533;51.090;17.216;2023-04-24T01:31:03;99101.75;;;10.78;84.74
79136;BME280;68533;51.090;17.216;2023-04-24T01:33:29;99101.56;;;10.75;85.26
79136;BME280;68533;51.090;17.216;2023-04-24T01:35:55;99106.44;;;10.78;84.99
79136;BME280;68533;51.090;17.216;2023-04-24T01:38:23;99096.41;;;10.73;85.36
79136;BME280;68533;51.090;17.216;2023-04-24T01:40:49;99095.59;;;10.73;84.93
79136;BME280;68533;51.090;17.216;2023-04-24T01:43:17;99096.06;;;10.75;84.93
79136;BME280;68533;51.090;17.216;2023-04-24T01:45:43;99098.03;;;10.74;84.87
79136;BME280;68533;51.090;17.216;2023-04-24T01:48:12;99090.00;;;10.86;83.61
79136;BME280;68533;51.090;17.216;2023-04-24T01:50:37;99095.00;;;10.84;84.07
79136;BME280;68533;51.090;17.216;2023-04-24T01:53:04;99086.88;;;10.79;83.62
79136;BME280;68533;51.090;17.216;2023-04-24T01:55:30;99087.69;;;10.80;84.35
79136;BME280;68533;51.090;17.216;2023-04-24T01:57:56;99096.81;;;10.89;83.50
79136;BME280;68533;51.090;17.216;2023-04-24T02:00:23;99086.16;;;10.96;82.97
79136;BME280;68533;51.090;17.216;2023-04-24T02:02:50;99087.28;;;10.95;83.66
79136;BME280;68533;51.090;17.216;2023-04-24T02:05:16;99079.66;;;10.92;84.16
79136;BME280;68533;51.090;17.216;2023-04-24T02:07:42;99079.50;;;10.88;84.08
79136;BME280;68533;51.090;17.216;2023-04-24T02:10:08;99075.13;;;10.87;83.81
79136;BME280;68533;51.090;17.216;2023-04-24T02:12:35;99076.88;;;10.83;84.21
79136;BME280;68533;51.090;17.216;2023-04-24T02:15:01;99077.06;;;10.87;83.77
79136;BME280;68533;51.090;17.216;2023-04-24T02:17:27;99075.44;;;10.86;83.77
79136;BME280;68533;51.090;17.216;2023-04-24T02:19:53;99072.53;;;10.91;83.29
79136;BME280;68533;51.090;17.216;2023-04-24T02:22:21;99068.97;;;10.90;83.63
79136;BME280;68533;51.090;17.216;2023-04-24T02:24:47;99068.97;;;10.90;83.60
79136;BME280;68533;51.090;17.216;2023-04-24T02:27:13;99077.16;;;10.82;85.17
79136;BME280;68533;51.090;17.216;2023-04-24T02:29:40;99071.31;;;10.75;86.35
79136;BME280;68533;51.090;17.216;2023-04-24T02:32:06;99071.97;;;10.72;85.74
79136;BME280;68533;51.090;17.216;2023-04-24T02:34:32;99070.16;;;10.67;85.89
79136;BME280;68533;51.090;17.216;2023-04-24T02:36:58;99060.31;;;10.66;85.87
79136;BME280;68533;51.090;17.216;2023-04-24T02:39:27;99064.66;;;10.67;85.80
79136;BME280;68533;51.090;17.216;2023-04-24T02:41:52;99065.00;;;10.66;86.30
79136;BME280;68533;51.090;17.216;2023-04-24T02:44:19;99061.59;;;10.69;85.05
79136;BME280;68533;51.090;17.216;2023-04-24T02:46:45;99051.47;;;10.78;85.12
79136;BME280;68533;51.090;17.216;2023-04-24T02:49:12;99050.00;;;10.80;84.90
79136;BME280;68533;51.090;17.216;2023-04-24T02:51:38;99050.19;;;10.84;84.51
79136;BME280;68533;51.090;17.216;2023-04-24T02:54:09;99038.38;;;10.83;84.13
79136;BME280;68533;51.090;17.216;2023-04-24T02:56:36;99035.31;;;10.85;84.25
79136;BME280;68533;51.090;17.216;2023-04-24T02:59:01;99037.09;;;10.81;85.04
79136;BME280;68533;51.090;17.216;2023-04-24T03:01:28;99034.44;;;10.76;85.14
79136;BME280;68533;51.090;17.216;2023-04-24T03:03:54;99034.28;;;10.72;85.09
79136;BME280;68533;51.090;17.216;2023-04-24T03:06:20;99033.00;;;10.70;85.75
79136;BME280;68533;51.090;17.216;2023-04-24T03:08:47;99025.75;;;10.74;85.04
79136;BME280;68533;51.090;17.216;2023-04-24T03:11:13;99029.97;;;10.88;83.80
79136;BME280;68533;51.090;17.216;2023-04-24T03:13:39;99023.69;;;10.97;83.45
79136;BME280;68533;51.090;17.216;2023-04-24T03:16:05;99028.22;;;11.01;83.13
79136;BME280;68533;51.090;17.216;2023-04-24T03:18:31;99036.16;;;11.03;82.73
79136;BME280;68533;51.090;17.216;2023-04-24T03:20:57;99033.25;;;11.08;82.59
79136;BME280;68533;51.090;17.216;2023-04-24T03:23:23;99036.34;;;11.15;82.27
79136;BME280;68533;51.090;17.216;2023-04-24T03:25:49;99033.25;;;11.08;82.14
79136;BME280;68533;51.090;17.216;2023-04-24T03:28:15;99026.63;;;11.09;82.15
79136;BME280;68533;51.090;17.216;2023-04-24T03:30:41;99033.25;;;11.08;82.58
79136;BME280;68533;51.090;17.216;2023-04-24T03:33:07;99033.44;;;11.11;81.89
79136;BME280;68533;51.090;17.216;2023-04-24T03:35:33;99036.31;;;11.06;82.25
79136;BME280;68533;51.090;17.216;2023-04-24T03:37:59;99033.72;;;11.01;82.31
79136;BME280;68533;51.090;17.216;2023-04-24T03:40:26;99040.66;;;10.99;82.97
79136;BME280;68533;51.090;17.216;2023-04-24T03:42:52;99042.75;;;10.93;83.06
79136;BME280;68533;51.090;17.216;2023-04-24T03:45:18;99031.13;;;10.87;83.98
79136;BME280;68533;51.090;17.216;2023-04-24T03:47:44;99038.88;;;10.85;83.43
79136;BME280;68533;51.090;17.216;2023-04-24T03:50:11;99039.03;;;10.89;83.30
79136;BME280;68533;51.090;17.216;2023-04-24T03:52:39;99044.19;;;10.90;83.28
79136;BME280;68533;51.090;17.216;2023-04-24T03:55:05;99054.25;;;10.95;82.46
79136;BME280;68533;51.090;17.216;2023-04-24T03:57:32;99055.22;;;10.90;83.37
79136;BME280;68533;51.090;17.216;2023-04-24T03:59:58;99056.53;;;10.93;83.35
79136;BME280;68533;51.090;17.216;2023-04-24T04:02:24;99064.28;;;10.91;82.87
79136;BME280;68533;51.090;17.216;2023-04-24T04:04:53;99074.44;;;10.82;84.48
79136;BME280;68533;51.090;17.216;2023-04-24T04:07:19;99070.44;;;10.88;84.18
79136;BME280;68533;51.090;17.216;2023-04-24T04:09:45;99070.78;;;10.95;82.93
79136;BME280;68533;51.090;17.216;2023-04-24T04:12:11;99071.25;;;10.88;83.76
79136;BME280;68533;51.090;17.216;2023-04-24T04:14:38;99078.84;;;10.92;83.36
79136;BME280;68533;51.090;17.216;2023-04-24T04:17:04;99065.09;;;10.92;83.25
79136;BME280;68533;51.090;17.216;2023-04-24T04:19:30;99074.47;;;10.90;83.34
79136;BME280;68533;51.090;17.216;2023-04-24T04:21:56;99063.41;;;10.82;83.69
79136;BME280;68533;51.090;17.216;2023-04-24T04:24:25;99064.13;;;10.87;83.77
79136;BME280;68533;51.090;17.216;2023-04-24T04:26:54;99055.03;;;10.87;83.56
79136;BME280;68533;51.090;17.216;2023-04-24T04:29:23;99057.16;;;10.90;83.39
79136;BME280;68533;51.090;17.216;2023-04-24T04:31:49;99049.25;;;10.88;83.54
79136;BME280;68533;51.090;17.216;2023-04-24T04:34:16;99060.56;;;10.87;83.01
79136;BME280;68533;51.090;17.216;2023-04-24T04:36:42;99057.00;;;10.86;83.13
79136;BME280;68533;51.090;17.216;2023-04-24T04:39:08;99053.59;;;10.89;83.06
79136;BME280;68533;51.090;17.216;2023-04-24T04:41:34;99051.00;;;10.93;82.66
79136;BME280;68533;51.090;17.216;2023-04-24T04:44:01;99045.22;;;11.03;81.98
79136;BME280;68533;51.090;17.216;2023-04-24T04:46:30;99055.28;;;11.16;81.43
79136;BME280;68533;51.090;17.216;2023-04-24T04:49:00;99055.13;;;11.21;80.96
79136;BME280;68533;51.090;17.216;2023-04-24T04:51:26;99055.13;;;11.21;81.20
79136;BME280;68533;51.090;17.216;2023-04-24T04:53:53;99056.56;;;11.19;81.34
79136;BME280;68533;51.090;17.216;2023-04-24T04:56:19;99057.22;;;11.16;81.20
79136;BME280;68533;51.090;17.216;2023-04-24T04:58:47;99061.91;;;11.15;81.21
79136;BME280;68533;51.090;17.216;2023-04-24T05:01:12;99063.03;;;11.14;81.17
79136;BME280;68533;51.090;17.216;2023-04-24T05:03:39;99056.56;;;11.10;81.15
79136;BME280;68533;51.090;17.216;2023-04-24T05:06:05;99063.19;;;11.09;81.43
79136;BME280;68533;51.090;17.216;2023-04-24T05:08:32;99071.28;;;11.14;81.05
79136;BME280;68533;51.090;17.216;2023-04-24T05:10:58;99063.88;;;11.23;80.17
79136;BME280;68533;51.090;17.216;2023-04-24T05:13:24;99063.22;;;11.26;80.80
79136;BME280;68533;51.090;17.216;2023-04-24T05:15:50;99068.09;;;11.29;80.52
79136;BME280;68533;51.090;17.216;2023-04-24T05:18:18;99061.28;;;11.36;80.40
79136;BME280;68533;51.090;17.216;2023-04-24T05:20:44;99064.22;;;11.39;79.40
79136;BME280;68533;51.090;17.216;2023-04-24T05:23:10;99064.06;;;11.44;79.50
79136;BME280;68533;51.090;17.216;2023-04-24T05:25:37;99056.44;;;11.50;79.12
79136;BME280;68533;51.090;17.216;2023-04-24T05:28:08;99058.56;;;11.53;78.72
79136;BME280;68533;51.090;17.216;2023-04-24T05:30:34;99057.94;;;11.56;78.92
79136;BME280;68533;51.090;17.216;2023-04-24T05:33:00;99054.81;;;11.57;78.79
79136;BME280;68533;51.090;17.216;2023-04-24T05:35:26;99057.09;;;11.64;79.02
79136;BME280;68533;51.090;17.216;2023-04-24T05:37:54;99052.56;;;11.68;78.26
79136;BME280;68533;51.090;17.216;2023-04-24T05:40:20;99056.63;;;11.79;78.44
79136;BME280;68533;51.090;17.216;2023-04-24T05:42:46;99055.19;;;11.90;78.03
79136;BME280;68533;51.090;17.216;2023-04-24T05:45:14;99055.81;;;11.96;77.59
79136;BME280;68533;51.090;17.216;2023-04-24T05:47:43;99057.94;;;11.99;77.56
79136;BME280;68533;51.090;17.216;2023-04-24T05:50:10;99060.50;;;12.04;76.01
79136;BME280;68533;51.090;17.216;2023-04-24T05:52:36;99058.06;;;12.11;76.34
79136;BME280;68533;51.090;17.216;2023-04-24T05:55:02;99059.00;;;12.24;75.81
79136;BME280;68533;51.090;17.216;2023-04-24T05:57:28;99059.44;;;12.43;75.25
79136;BME280;68533;51.090;17.216;2023-04-24T05:59:54;99068.25;;;12.74;73.88
79136;BME280;68533;51.090;17.216;2023-04-24T06:02:20;99075.59;;;13.00;72.46
79136;BME280;68533;51.090;17.216;2023-04-24T06:04:46;99068.56;;;13.11;73.20
79136;BME280;68533;51.090;17.216;2023-04-24T06:07:13;99073.28;;;13.10;72.04
79136;BME280;68533;51.090;17.216;2023-04-24T06:09:39;99080.25;;;13.16;71.73
79136;BME280;68533;51.090;17.216;2023-04-24T06:12:05;99085.69;;;13.34;70.28
79136;BME280;68533;51.090;17.216;2023-04-24T06:14:34;99081.22;;;13.41;69.37
79136;BME280;68533;51.090;17.216;2023-04-24T06:17:01;99084.28;;;13.48;67.74
79136;BME280;68533;51.090;17.216;2023-04-24T06:19:27;99084.34;;;13.60;67.38
79136;BME280;68533;51.090;17.216;2023-04-24T06:21:53;99077.19;;;13.59;66.30
79136;BME280;68533;51.090;17.216;2023-04-24T06:24:19;99078.94;;;13.64;66.16
79136;BME280;68533;51.090;17.216;2023-04-24T06:26:45;99070.84;;;13.80;65.64
79136;BME280;68533;51.090;17.216;2023-04-24T06:29:12;99074.56;;;13.84;64.99
79136;BME280;68533;51.090;17.216;2023-04-24T06:31:39;99082.38;;;13.82;64.29
79136;BME280;68533;51.090;17.216;2023-04-24T06:34:05;99071.00;;;13.83;64.17
79136;BME280;68533;51.090;17.216;2023-04-24T06:36:31;99079.63;;;13.82;63.99
79136;BME280;68533;51.090;17.216;2023-04-24T06:38:59;99068.16;;;13.92;61.54
79136;BME280;68533;51.090;17.216;2023-04-24T06:41:26;99083.88;;;14.00;63.22
79136;BME280;68533;51.090;17.216;2023-04-24T06:43:52;99065.91;;;14.06;60.86
79136;BME280;68533;51.090;17.216;2023-04-24T06:46:18;99071.69;;;14.13;60.25
79136;BME280;68533;51.090;17.216;2023-04-24T06:48:44;99071.94;;;14.20;60.52
79136;BME280;68533;51.090;17.216;2023-04-24T06:51:13;99070.91;;;14.25;59.72
79136;BME280;68533;51.090;17.216;2023-04-24T06:53:39;99066.78;;;14.31;60.33
79136;BME280;68533;51.090;17.216;2023-04-24T06:56:06;99071.59;;;14.43;60.88
79136;BME280;68533;51.090;17.216;2023-04-24T06:58:32;99073.22;;;14.44;60.12
79136;BME280;68533;51.090;17.216;2023-04-24T07:00:59;99076.66;;;14.53;59.70
79136;BME280;68533;51.090;17.216;2023-04-24T07:03:25;99069.66;;;14.55;59.60
79136;BME280;68533;51.090;17.216;2023-04-24T07:05:51;99068.25;;;14.49;59.93
79136;BME280;68533;51.090;17.216;2023-04-24T07:08:19;99068.41;;;14.65;59.13
79136;BME280;68533;51.090;17.216;2023-04-24T07:10:49;99072.09;;;14.69;58.83
79136;BME280;68533;51.090;17.216;2023-04-24T07:13:17;99073.94;;;14.65;59.13
79136;BME280;68533;51.090;17.216;2023-04-24T07:15:44;99072.31;;;14.64;58.99
79136;BME280;68533;51.090;17.216;2023-04-24T07:18:10;99077.84;;;14.64;59.34
79136;BME280;68533;51.090;17.216;2023-04-24T07:20:37;99079.22;;;14.58;60.17
79136;BME280;68533;51.090;17.216;2023-04-24T07:23:03;99076.25;;;14.75;59.51
79136;BME280;68533;51.090;17.216;2023-04-24T07:25:29;99079.03;;;14.87;59.45
79136;BME280;68533;51.090;17.216;2023-04-24T07:27:56;99069.13;;;14.86;58.83
79136;BME280;68533;51.090;17.216;2023-04-24T07:30:23;99080.06;;;14.83;58.57
79136;BME280;68533;51.090;17.216;2023-04-24T07:32:50;99080.75;;;14.92;58.67
79136;BME280;68533;51.090;17.216;2023-04-24T07:35:17;99069.72;;;15.04;58.87
79136;BME280;68533;51.090;17.216;2023-04-24T07:37:45;99077.69;;;15.82;56.72
79136;BME280;68533;51.090;17.216;2023-04-24T07:40:13;99072.75;;;16.03;54.56
79136;BME280;68533;51.090;17.216;2023-04-24T07:42:39;99069.88;;;16.27;54.51
79136;BME280;68533;51.090;17.216;2023-04-24T07:45:07;99071.78;;;15.83;55.32
79136;BME280;68533;51.090;17.216;2023-04-24T07:47:33;99081.31;;;15.58;54.55
79136;BME280;68533;51.090;17.216;2023-04-24T07:49:59;99079.00;;;15.48;55.88
79136;BME280;68533;51.090;17.216;2023-04-24T07:52:25;99076.34;;;15.51;56.53
79136;BME280;68533;51.090;17.216;2023-04-24T07:54:52;99079.13;;;15.39;56.66
79136;BME280;68533;51.090;17.216;2023-04-24T07:57:25;99079.13;;;15.39;57.04
79136;BME280;68533;51.090;17.216;2023-04-24T07:59:51;99085.81;;;15.38;56.88
79136;BME280;68533;51.090;17.216;2023-04-24T08:02:17;99084.91;;;15.22;56.40
79136;BME280;68533;51.090;17.216;2023-04-24T08:04:43;99085.13;;;15.05;56.64
79136;BME280;68533;51.090;17.216;2023-04-24T08:07:09;99089.88;;;15.04;58.57
79136;BME280;68533;51.090;17.216;2023-04-24T08:09:36;99098.53;;;15.03;57.93
79136;BME280;68533;51.090;17.216;2023-04-24T08:12:01;99099.56;;;14.86;58.18
79136;BME280;68533;51.090;17.216;2023-04-24T08:14:28;99091.81;;;14.80;58.84
79136;BME280;68533;51.090;17.216;2023-04-24T08:16:54;99091.44;;;14.69;61.97
79136;BME280;68533;51.090;17.216;2023-04-24T08:19:21;99091.41;;;14.45;64.94
79136;BME280;68533;51.090;17.216;2023-04-24T08:21:47;99091.06;;;14.13;66.44
79136;BME280;68533;51.090;17.216;2023-04-24T08:24:14;99078.22;;;14.09;68.71
79136;BME280;68533;51.090;17.216;2023-04-24T08:26:40;99098.56;;;13.92;70.81
79136;BME280;68533;51.090;17.216;2023-04-24T08:29:08;99090.72;;;13.52;72.98
79136;BME280;68533;51.090;17.216;2023-04-24T08:31:34;99094.63;;;13.51;72.21
79136;BME280;68533;51.090;17.216;2023-04-24T08:34:02;99094.63;;;13.72;69.43
79136;BME280;68533;51.090;17.216;2023-04-24T08:36:28;99098.53;;;14.13;71.16
79136;BME280;68533;51.090;17.216;2023-04-24T08:38:55;99093.00;;;15.03;70.09
79136;BME280;68533;51.090;17.216;2023-04-24T08:41:21;99106.91;;;14.70;67.78
79136;BME280;68533;51.090;17.216;2023-04-24T08:43:50;99099.78;;;14.81;68.65
79136;BME280;68533;51.090;17.216;2023-04-24T08:46:18;99093.78;;;14.79;67.00
79136;BME280;68533;51.090;17.216;2023-04-24T08:48:45;99098.03;;;14.76;67.53
79136;BME280;68533;51.090;17.216;2023-04-24T08:51:11;99088.28;;;15.03;67.13
79136;BME280;68533;51.090;17.216;2023-04-24T08:53:38;99097.16;;;15.09;64.87
79136;BME280;68533;51.090;17.216;2023-04-24T08:56:04;99098.88;;;15.26;67.16
79136;BME280;68533;51.090;17.216;2023-04-24T08:58:31;99110.28;;;15.36;67.05
79136;BME280;68533;51.090;17.216;2023-04-24T09:00:58;99096.53;;;15.52;64.34
79136;BME280;68533;51.090;17.216;2023-04-24T09:03:27;99094.09;;;15.75;64.28
79136;BME280;68533;51.090;17.216;2023-04-24T09:05:57;99103.94;;;15.48;63.85
79136;BME280;68533;51.090;17.216;2023-04-24T09:08:24;99096.78;;;15.59;62.75
79136;BME280;68533;51.090;17.216;2023-04-24T09:10:51;99100.66;;;15.82;60.90
79136;BME280;68533;51.090;17.216;2023-04-24T09:13:21;99099.78;;;16.34;59.42
79136;BME280;68533;51.090;17.216;2023-04-24T09:15:47;99101.22;;;16.72;61.39
79136;BME280;68533;51.090;17.216;2023-04-24T09:18:14;99100.41;;;16.87;57.78
79136;BME280;68533;51.090;17.216;2023-04-24T09:21:08;99103.69;;;17.55;57.72
79136;BME280;68533;51.090;17.216;2023-04-24T09:23:35;99096.09;;;17.71;55.82
79136;BME280;68533;51.090;17.216;2023-04-24T09:26:02;99096.00;;;17.33;55.29
79136;BME280;68533;51.090;17.216;2023-04-24T09:28:34;99101.19;;;17.34;54.56
79136;BME280;68533;51.090;17.216;2023-04-24T09:31:13;99094.78;;;17.65;53.12
79136;BME280;68533;51.090;17.216;2023-04-24T09:34:02;99098.50;;;18.08;51.77
79136;BME280;68533;51.090;17.216;2023-04-24T09:36:36;99087.88;;;17.75;50.76
79136;BME280;68533;51.090;17.216;2023-04-24T09:39:06;99091.34;;;17.21;53.00
79136;BME280;68533;51.090;17.216;2023-04-24T09:41:48;99086.66;;;18.53;50.12
79136;BME280;68533;51.090;17.216;2023-04-24T09:44:21;99087.06;;;17.94;51.41
79136;BME280;68533;51.090;17.216;2023-04-24T09:46:55;99083.13;;;17.95;52.47
79136;BME280;68533;51.090;17.216;2023-04-24T09:49:26;99072.78;;;17.95;52.75
79136;BME280;68533;51.090;17.216;2023-04-24T09:52:04;99068.78;;;17.58;53.06
79136;BME280;68533;51.090;17.216;2023-04-24T09:54:31;99069.78;;;17.65;53.05
79136;BME280;68533;51.090;17.216;2023-04-24T09:56:56;99072.50;;;18.19;52.86
79136;BME280;68533;51.090;17.216;2023-04-24T09:59:23;99067.56;;;18.32;51.94
79136;BME280;68533;51.090;17.216;2023-04-24T10:01:49;99064.34;;;17.72;53.31
79136;BME280;68533;51.090;17.216;2023-04-24T10:04:17;99065.72;;;17.28;54.55
79136;BME280;68533;51.090;17.216;2023-04-24T10:06:43;99060.28;;;17.16;54.85
79136;BME280;68533;51.090;17.216;2023-04-24T10:09:10;99065.06;;;17.34;56.10
79136;BME280;68533;51.090;17.216;2023-04-24T10:11:41;99065.50;;;17.36;54.65
79136;BME280;68533;51.090;17.216;2023-04-24T10:14:09;99058.94;;;16.94;56.39
79136;BME280;68533;51.090;17.216;2023-04-24T10:16:37;99064.31;;;16.71;54.83
79136;BME280;68533;51.090;17.216;2023-04-24T10:19:03;99058.03;;;16.90;54.14
79136;BME280;68533;51.090;17.216;2023-04-24T10:21:30;99053.66;;;17.55;53.92
79136;BME280;68533;51.090;17.216;2023-04-24T10:23:57;99058.66;;;17.50;54.19
79136;BME280;68533;51.090;17.216;2023-04-24T10:26:26;99065.28;;;18.38;52.16
79136;BME280;68533;51.090;17.216;2023-04-24T10:28:54;99060.19;;;17.63;53.26
79136;BME280;68533;51.090;17.216;2023-04-24T10:31:20;99072.81;;;17.25;53.92
79136;BME280;68533;51.090;17.216;2023-04-24T10:33:47;99074.63;;;17.02;53.78
79136;BME280;68533;51.090;17.216;2023-04-24T10:36:15;99062.63;;;17.49;53.65
79136;BME280;68533;51.090;17.216;2023-04-24T10:38:43;99069.56;;;17.74;53.07
79136;BME280;68533;51.090;17.216;2023-04-24T10:41:12;99065.81;;;17.31;54.22
79136;BME280;68533;51.090;17.216;2023-04-24T10:43:46;99069.06;;;16.86;55.70
79136;BME280;68533;51.090;17.216;2023-04-24T10:46:19;99073.41;;;17.34;53.05
79136;BME280;68533;51.090;17.216;2023-04-24T10:48:53;99073.53;;;17.22;53.64
79136;BME280;68533;51.090;17.216;2023-04-24T10:51:22;99080.56;;;17.35;53.87
79136;BME280;68533;51.090;17.216;2023-04-24T10:53:51;99076.66;;;17.05;55.51
79136;BME280;68533;51.090;17.216;2023-04-24T10:56:21;99072.31;;;16.88;54.99
79136;BME280;68533;51.090;17.216;2023-04-24T10:58:53;99063.63;;;16.74;55.81
79136;BME280;68533;51.090;17.216;2023-04-24T11:01:29;99063.00;;;16.37;54.55
79136;BME280;68533;51.090;17.216;2023-04-24T11:03:58;99064.88;;;16.33;53.98
79136;BME280;68533;51.090;17.216;2023-04-24T11:06:31;99069.00;;;16.39;56.10
79136;BME280;68533;51.090;17.216;2023-04-24T11:09:09;99073.38;;;16.40;56.40
79136;BME280;68533;51.090;17.216;2023-04-24T11:11:45;99075.88;;;16.45;56.80
79136;BME280;68533;51.090;17.216;2023-04-24T11:14:14;99077.22;;;16.79;55.30
79136;BME280;68533;51.090;17.216;2023-04-24T11:19:18;99072.19;;;18.44;51.32
79136;BME280;68533;51.090;17.216;2023-04-24T11:21:46;99063.66;;;19.24;48.29
79136;BME280;68533;51.090;17.216;2023-04-24T11:27:18;99057.47;;;20.61;43.12
79136;BME280;68533;51.090;17.216;2023-04-24T11:35:19;99071.50;;;18.50;47.63
79136;BME280;68533;51.090;17.216;2023-04-24T11:37:51;99067.44;;;18.44;48.66
79136;BME280;68533;51.090;17.216;2023-04-24T11:40:20;99062.19;;;18.62;48.16
79136;BME280;68533;51.090;17.216;2023-04-24T11:42:47;99065.88;;;18.89;47.62
79136;BME280;68533;51.090;17.216;2023-04-24T11:47:42;99049.66;;;17.72;51.72
79136;BME280;68533;51.090;17.216;2023-04-24T11:50:11;99059.75;;;17.10;51.91
79136;BME280;68533;51.090;17.216;2023-04-24T11:52:40;99062.00;;;16.89;54.61
79136;BME280;68533;51.090;17.216;2023-04-24T11:57:51;99067.91;;;16.28;59.90
79136;BME280;68533;51.090;17.216;2023-04-24T12:00:26;99066.97;;;16.24;61.62
79136;BME280;68533;51.090;17.216;2023-04-24T12:03:07;99059.28;;;16.17;58.79
79136;BME280;68533;51.090;17.216;2023-04-24T12:05:33;99054.47;;;16.14;58.40
79136;BME280;68533;51.090;17.216;2023-04-24T12:08:01;99058.78;;;16.27;58.84
79136;BME280;68533;51.090;17.216;2023-04-24T12:10:29;99061.19;;;16.29;58.27
79136;BME280;68533;51.090;17.216;2023-04-24T12:12:57;99045.22;;;16.10;58.89
79136;BME280;68533;51.090;17.216;2023-04-24T12:15:24;99061.97;;;16.14;59.36
79136;BME280;68533;51.090;17.216;2023-04-24T12:17:51;99057.63;;;16.01;58.61
79136;BME280;68533;51.090;17.216;2023-04-24T12:20:30;99055.44;;;15.94;56.58
79136;BME280;68533;51.090;17.216;2023-04-24T12:22:58;99055.44;;;15.94;56.82
79136;BME280;68533;51.090;17.216;2023-04-24T12:27:55;99053.59;;;15.70;56.30
79136;BME280;68533;51.090;17.216;2023-04-24T12:30:27;99051.97;;;15.69;57.83
79136;BME280;68533;51.090;17.216;2023-04-24T12:32:54;99055.38;;;15.78;56.67
79136;BME280;68533;51.090;17.216;2023-04-24T12:35:23;99042.72;;;15.77;55.82
79136;BME280;68533;51.090;17.216;2023-04-24T12:37:49;99056.09;;;15.75;56.92
79136;BME280;68533;51.090;17.216;2023-04-24T12:40:17;99053.81;;;15.77;57.32
79136;BME280;68533;51.090;17.216;2023-04-24T12:42:50;99039.38;;;15.72;57.67
79136;BME280;68533;51.090;17.216;2023-04-24T12:45:18;99046.97;;;15.75;58.25
79136;BME280;68533;51.090;17.216;2023-04-24T12:47:45;99042.78;;;15.53;59.06
79136;BME280;68533;51.090;17.216;2023-04-24T12:50:13;99034.78;;;15.51;58.00
79136;BME280;68533;51.090;17.216;2023-04-24T12:52:40;99044.59;;;15.49;58.52
79136;BME280;68533;51.090;17.216;2023-04-24T12:55:07;99040.78;;;15.41;58.71
79136;BME280;68533;51.090;17.216;2023-04-24T12:57:36;99037.03;;;15.34;59.92
79136;BME280;68533;51.090;17.216;2023-04-24T13:00:03;99034.47;;;15.29;60.43
79136;BME280;68533;51.090;17.216;2023-04-24T13:02:31;99031.25;;;15.27;61.09
79136;BME280;68533;51.090;17.216;2023-04-24T13:04:58;99026.66;;;15.19;61.72
79136;BME280;68533;51.090;17.216;2023-04-24T13:07:26;99028.03;;;15.12;61.82
79136;BME280;68533;51.090;17.216;2023-04-24T13:09:54;99026.44;;;15.11;63.93